createdAt,value
2018-07-21T00:00:15.226Z,0
2018-07-21T00:01:17.230Z,0
2018-07-21T00:02:19.288Z,0
2018-07-21T00:03:21.222Z,0
2018-07-21T00:04:23.225Z,0
2018-07-21T00:05:25.597Z,0
2018-07-21T00:06:27.974Z,0
2018-07-21T00:07:29.971Z,0
2018-07-21T00:08:32.358Z,0
2018-07-21T00:09:34.354Z,0
2018-07-21T00:10:36.345Z,0
2018-07-21T00:11:38.339Z,0
2018-07-21T00:12:40.620Z,0
2018-07-21T00:13:42.602Z,0
2018-07-21T00:14:44.602Z,0
2018-07-21T00:15:46.884Z,0
2018-07-21T00:16:48.881Z,0
2018-07-21T00:17:50.871Z,0
2018-07-21T00:18:53.148Z,0
2018-07-21T00:19:55.140Z,0
2018-07-21T00:20:57.136Z,0
2018-07-21T00:21:59.430Z,0
2018-07-21T00:23:01.422Z,0
2018-07-21T00:24:03.436Z,0
2018-07-21T00:25:05.433Z,0
2018-07-21T00:26:07.435Z,0
2018-07-21T00:27:09.816Z,0
2018-07-21T00:28:12.093Z,0
2018-07-21T00:29:14.080Z,0
2018-07-21T00:30:16.368Z,0
2018-07-21T00:31:18.945Z,0
2018-07-21T00:32:20.941Z,0
2018-07-21T00:33:22.928Z,0
2018-07-21T00:34:24.937Z,0
2018-07-21T00:35:26.931Z,0
2018-07-21T00:36:28.928Z,0
2018-07-21T00:37:30.925Z,0
2018-07-21T00:38:32.909Z,0
2018-07-21T00:39:34.904Z,0
2018-07-21T00:40:36.900Z,0
2018-07-21T00:41:38.899Z,0
2018-07-21T00:42:41.273Z,0
2018-07-21T00:43:43.273Z,0
2018-07-21T00:44:45.270Z,0
2018-07-21T00:45:47.257Z,0
2018-07-21T00:46:49.252Z,0
2018-07-21T00:47:51.539Z,0
2018-07-21T00:48:53.533Z,0
2018-07-21T00:49:55.527Z,0
2018-07-21T00:50:57.512Z,0
2018-07-21T00:51:59.795Z,0
2018-07-21T00:53:01.789Z,0
2018-07-21T00:54:03.788Z,0
2018-07-21T00:55:06.178Z,0
2018-07-21T00:56:08.167Z,0
2018-07-21T00:57:10.211Z,0
2018-07-21T00:58:12.166Z,0
2018-07-21T00:59:14.157Z,0
2018-07-21T01:00:16.146Z,0
2018-07-21T01:01:18.149Z,0
2018-07-21T01:02:20.434Z,0
2018-07-21T01:03:22.432Z,0
2018-07-21T01:04:24.436Z,0
2018-07-21T01:05:26.429Z,0
2018-07-21T01:06:28.419Z,0
2018-07-21T01:07:30.426Z,0
2018-07-21T01:08:32.418Z,0
2018-07-21T01:09:34.411Z,0
2018-07-21T01:10:36.415Z,0
2018-07-21T01:11:38.680Z,0
2018-07-21T01:12:40.674Z,0
2018-07-21T01:13:42.671Z,0
2018-07-21T01:14:44.675Z,0
2018-07-21T01:15:47.323Z,0
2018-07-21T01:16:49.323Z,0
2018-07-21T01:17:51.319Z,0
2018-07-21T01:18:53.693Z,0
2018-07-21T01:19:55.981Z,0
2018-07-21T01:20:57.976Z,0
2018-07-21T01:21:59.965Z,0
2018-07-21T01:23:01.964Z,0
2018-07-21T01:24:04.013Z,0
2018-07-21T01:25:06.009Z,0
2018-07-21T01:26:08.006Z,0
2018-07-21T01:27:10.000Z,0
2018-07-21T01:28:12.567Z,0
2018-07-21T01:29:14.571Z,0
2018-07-21T01:30:16.852Z,0
2018-07-21T01:31:19.122Z,0
2018-07-21T01:32:21.117Z,0
2018-07-21T01:33:23.115Z,0
2018-07-21T01:34:25.110Z,0
2018-07-21T01:35:27.114Z,0
2018-07-21T01:36:29.104Z,0
2018-07-21T01:37:31.096Z,0
2018-07-21T01:38:33.090Z,0
2018-07-21T01:39:35.092Z,0
2018-07-21T01:40:37.077Z,0
2018-07-21T01:41:39.357Z,0
2018-07-21T01:42:41.353Z,0
2018-07-21T01:43:43.348Z,0
2018-07-21T01:44:45.354Z,0
2018-07-21T01:45:47.906Z,0
2018-07-21T01:46:50.183Z,0
2018-07-21T01:47:52.174Z,0
2018-07-21T01:48:54.185Z,0
2018-07-21T01:49:56.171Z,0
2018-07-21T01:50:58.167Z,0
2018-07-21T01:52:00.465Z,0
2018-07-21T01:53:02.443Z,0
2018-07-21T01:54:04.451Z,0
2018-07-21T01:55:06.443Z,0
2018-07-21T01:56:08.439Z,0
2018-07-21T01:57:10.423Z,0
2018-07-21T01:58:12.426Z,0
2018-07-21T01:59:14.423Z,0
2018-07-21T02:00:16.418Z,0
2018-07-21T02:01:18.719Z,0
2018-07-21T02:02:20.710Z,0
2018-07-21T02:03:22.704Z,0
2018-07-21T02:04:24.691Z,0
2018-07-21T02:05:26.687Z,0
2018-07-21T02:06:28.683Z,0
2018-07-21T02:07:31.066Z,0
2018-07-21T02:08:33.064Z,0
2018-07-21T02:09:35.061Z,0
2018-07-21T02:10:37.339Z,0
2018-07-21T02:11:39.667Z,0
2018-07-21T02:12:41.655Z,0
2018-07-21T02:13:43.877Z,0
2018-07-21T02:14:45.871Z,0
2018-07-21T02:15:47.867Z,0
2018-07-21T02:16:50.137Z,0
2018-07-21T02:17:52.142Z,0
2018-07-21T02:18:54.144Z,0
2018-07-21T02:19:56.438Z,0
2018-07-21T02:20:58.430Z,0
2018-07-21T02:22:00.819Z,0
2018-07-21T02:23:02.810Z,0
2018-07-21T02:24:04.816Z,0
2018-07-21T02:25:06.817Z,0
2018-07-21T02:26:09.184Z,0
2018-07-21T02:27:11.577Z,0
2018-07-21T02:28:13.567Z,0
2018-07-21T02:29:15.562Z,0
2018-07-21T02:30:17.547Z,0
2018-07-21T02:31:19.553Z,0
2018-07-21T02:32:21.849Z,0
2018-07-21T02:33:24.144Z,0
2018-07-21T02:34:26.148Z,0
2018-07-21T02:35:28.523Z,0
2018-07-21T02:36:30.525Z,0
2018-07-21T02:37:33.105Z,0
2018-07-21T02:38:35.483Z,0
2018-07-21T02:39:37.770Z,0
2018-07-21T02:40:40.044Z,0
2018-07-21T02:41:42.315Z,0
2018-07-21T02:42:44.606Z,0
2018-07-21T02:43:46.894Z,0
2018-07-21T02:44:48.885Z,0
2018-07-21T02:45:50.873Z,0
2018-07-21T02:46:52.878Z,0
2018-07-21T02:47:55.151Z,0
2018-07-21T02:48:57.148Z,0
2018-07-21T02:49:59.816Z,0
2018-07-21T02:51:01.801Z,0
2018-07-21T02:52:04.090Z,0
2018-07-21T02:53:06.384Z,0
2018-07-21T02:54:08.664Z,0
2018-07-21T02:55:11.316Z,0
2018-07-21T02:56:13.315Z,0
2018-07-21T02:57:15.310Z,0
2018-07-21T02:58:17.306Z,0
2018-07-21T02:59:19.305Z,0
2018-07-21T03:00:21.297Z,0
2018-07-21T03:01:23.293Z,0
2018-07-21T03:02:25.290Z,0
2018-07-21T03:03:27.294Z,0
2018-07-21T03:04:29.583Z,0
2018-07-21T03:05:31.579Z,0
2018-07-21T03:06:33.962Z,1
2018-07-21T03:07:35.948Z,1
2018-07-21T03:08:37.948Z,1
2018-07-21T03:09:39.951Z,1
2018-07-21T03:10:42.226Z,1
2018-07-21T03:11:44.516Z,1
2018-07-21T03:12:46.802Z,1
2018-07-21T03:13:48.796Z,1
2018-07-21T03:14:51.074Z,1
2018-07-21T03:15:53.076Z,1
2018-07-21T03:16:55.064Z,2
2018-07-21T03:17:57.059Z,2
2018-07-21T03:18:59.051Z,2
2018-07-21T03:20:01.057Z,2
2018-07-21T03:21:03.332Z,2
2018-07-21T03:22:05.326Z,2
2018-07-21T03:23:07.406Z,2
2018-07-21T03:24:09.975Z,3
2018-07-21T03:25:12.254Z,3
2018-07-21T03:26:14.540Z,3
2018-07-21T03:27:16.541Z,3
2018-07-21T03:28:18.909Z,3
2018-07-21T03:29:20.911Z,3
2018-07-21T03:30:22.902Z,4
2018-07-21T03:31:24.887Z,4
2018-07-21T03:32:26.892Z,4
2018-07-21T03:33:28.882Z,4
2018-07-21T03:34:30.874Z,4
2018-07-21T03:35:32.871Z,5
2018-07-21T03:36:34.874Z,5
2018-07-21T03:37:36.867Z,5
2018-07-21T03:38:38.863Z,5
2018-07-21T03:39:40.862Z,6
2018-07-21T03:40:43.132Z,6
2018-07-21T03:41:45.128Z,6
2018-07-21T03:42:47.402Z,6
2018-07-21T03:43:49.391Z,7
2018-07-21T03:44:51.774Z,7
2018-07-21T03:45:54.069Z,7
2018-07-21T03:46:56.451Z,7
2018-07-21T03:47:58.453Z,7
2018-07-21T03:49:00.447Z,7
2018-07-21T03:50:02.432Z,8
2018-07-21T03:51:04.431Z,8
2018-07-21T03:52:06.428Z,8
2018-07-21T03:53:08.413Z,8
2018-07-21T03:54:10.686Z,8
2018-07-21T03:55:12.752Z,9
2018-07-21T03:56:14.678Z,9
2018-07-21T03:57:17.064Z,9
2018-07-21T03:58:19.338Z,10
2018-07-21T03:59:21.615Z,10
2018-07-21T04:00:23.908Z,10
2018-07-21T04:01:25.903Z,10
2018-07-21T04:02:27.891Z,11
2018-07-21T04:03:29.890Z,11
2018-07-21T04:04:31.886Z,11
2018-07-21T04:05:33.870Z,12
2018-07-21T04:06:36.159Z,12
2018-07-21T04:07:38.447Z,12
2018-07-21T04:08:40.441Z,12
2018-07-21T04:09:42.425Z,12
2018-07-21T04:10:44.420Z,12
2018-07-21T04:11:46.417Z,12
2018-07-21T04:12:48.464Z,13
2018-07-21T04:13:50.418Z,13
2018-07-21T04:14:52.406Z,13
2018-07-21T04:15:54.410Z,13
2018-07-21T04:16:56.402Z,14
2018-07-21T04:17:58.395Z,14
2018-07-21T04:19:00.388Z,14
2018-07-21T04:20:02.388Z,14
2018-07-21T04:21:04.374Z,15
2018-07-21T04:22:06.368Z,15
2018-07-21T04:23:08.367Z,15
2018-07-21T04:24:10.776Z,15
2018-07-21T04:25:12.737Z,16
2018-07-21T04:26:14.742Z,16
2018-07-21T04:27:17.118Z,16
2018-07-21T04:28:19.116Z,16
2018-07-21T04:29:21.116Z,17
2018-07-21T04:30:23.097Z,17
2018-07-21T04:31:25.093Z,17
2018-07-21T04:32:27.088Z,18
2018-07-21T04:33:29.090Z,18
2018-07-21T04:34:31.364Z,18
2018-07-21T04:35:33.355Z,18
2018-07-21T04:36:35.351Z,19
2018-07-21T04:37:37.350Z,19
2018-07-21T04:38:39.334Z,20
2018-07-21T04:39:41.335Z,20
2018-07-21T04:40:43.331Z,20
2018-07-21T04:41:45.326Z,21
2018-07-21T04:42:47.697Z,21
2018-07-21T04:43:49.693Z,22
2018-07-21T04:44:51.688Z,22
2018-07-21T04:45:53.690Z,23
2018-07-21T04:46:55.694Z,23
2018-07-21T04:47:57.687Z,23
2018-07-21T04:49:00.072Z,23
2018-07-21T04:50:02.072Z,23
2018-07-21T04:51:04.071Z,24
2018-07-21T04:52:06.062Z,24
2018-07-21T04:53:08.060Z,24
2018-07-21T04:54:10.047Z,25
2018-07-21T04:55:12.044Z,25
2018-07-21T04:56:14.427Z,26
2018-07-21T04:57:16.423Z,26
2018-07-21T04:58:18.414Z,26
2018-07-21T04:59:20.429Z,27
2018-07-21T05:00:22.418Z,27
2018-07-21T05:01:24.693Z,28
2018-07-21T05:02:26.694Z,28
2018-07-21T05:03:28.679Z,29
2018-07-21T05:04:30.679Z,29
2018-07-21T05:05:32.678Z,30
2018-07-21T05:06:34.681Z,30
2018-07-21T05:07:36.665Z,31
2018-07-21T05:08:38.671Z,31
2018-07-21T05:09:40.961Z,32
2018-07-21T05:10:42.952Z,32
2018-07-21T05:11:44.948Z,33
2018-07-21T05:12:46.948Z,34
2018-07-21T05:13:48.942Z,34
2018-07-21T05:14:50.938Z,34
2018-07-21T05:15:52.926Z,34
2018-07-21T05:16:54.930Z,35
2018-07-21T05:17:56.928Z,36
2018-07-21T05:18:58.924Z,36
2018-07-21T05:20:00.957Z,37
2018-07-21T05:21:02.927Z,37
2018-07-21T05:22:04.922Z,38
2018-07-21T05:23:06.929Z,38
2018-07-21T05:24:08.925Z,39
2018-07-21T05:25:10.920Z,39
2018-07-21T05:26:13.303Z,40
2018-07-21T05:27:15.294Z,40
2018-07-21T05:28:17.290Z,41
2018-07-21T05:29:19.292Z,41
2018-07-21T05:30:21.288Z,42
2018-07-21T05:31:23.278Z,42
2018-07-21T05:32:25.577Z,43
2018-07-21T05:33:27.656Z,43
2018-07-21T05:34:29.579Z,43
2018-07-21T05:35:31.575Z,43
2018-07-21T05:36:33.948Z,43
2018-07-21T05:37:35.946Z,43
2018-07-21T05:38:37.941Z,42
2018-07-21T05:39:39.948Z,42
2018-07-21T05:40:41.938Z,42
2018-07-21T05:41:44.507Z,42
2018-07-21T05:42:46.505Z,43
2018-07-21T05:43:48.792Z,43
2018-07-21T05:44:50.798Z,42
2018-07-21T05:45:52.794Z,43
2018-07-21T05:46:54.796Z,41
2018-07-21T05:47:56.790Z,42
2018-07-21T05:48:58.808Z,42
2018-07-21T05:50:01.106Z,42
2018-07-21T05:51:03.101Z,43
2018-07-21T05:52:05.104Z,43
2018-07-21T05:53:07.802Z,44
2018-07-21T05:54:09.794Z,44
2018-07-21T05:55:11.797Z,45
2018-07-21T05:56:13.808Z,46
2018-07-21T05:57:16.107Z,48
2018-07-21T05:58:18.102Z,47
2018-07-21T05:59:20.103Z,48
2018-07-21T06:00:22.097Z,48
2018-07-21T06:01:24.298Z,49
2018-07-21T06:02:26.602Z,50
2018-07-21T06:03:28.891Z,51
2018-07-21T06:04:31.166Z,52
2018-07-21T06:05:33.455Z,53
2018-07-21T06:06:35.453Z,54
2018-07-21T06:07:37.456Z,55
2018-07-21T06:08:40.199Z,56
2018-07-21T06:09:42.419Z,56
2018-07-21T06:10:44.417Z,56
2018-07-21T06:11:46.417Z,56
2018-07-21T06:12:48.427Z,56
2018-07-21T06:13:50.417Z,57
2018-07-21T06:14:52.424Z,58
2018-07-21T06:15:54.422Z,59
2018-07-21T06:16:57.105Z,59
2018-07-21T06:17:59.055Z,59
2018-07-21T06:19:01.333Z,60
2018-07-21T06:20:03.344Z,59
2018-07-21T06:21:05.344Z,59
2018-07-21T06:22:07.357Z,58
2018-07-21T06:23:09.351Z,57
2018-07-21T06:24:11.353Z,58
2018-07-21T06:25:14.332Z,58
2018-07-21T06:26:16.270Z,58
2018-07-21T06:27:18.660Z,59
2018-07-21T06:28:20.664Z,58
2018-07-21T06:29:22.655Z,58
2018-07-21T06:30:24.657Z,59
2018-07-21T06:31:26.662Z,60
2018-07-21T06:32:29.048Z,59
2018-07-21T06:33:31.060Z,60
2018-07-21T06:34:33.062Z,59
2018-07-21T06:35:35.579Z,59
2018-07-21T06:36:37.438Z,59
2018-07-21T06:37:39.445Z,59
2018-07-21T06:38:41.435Z,60
2018-07-21T06:39:43.438Z,60
2018-07-21T06:40:45.724Z,61
2018-07-21T06:41:47.724Z,62
2018-07-21T06:42:49.732Z,62
2018-07-21T06:43:52.502Z,64
2018-07-21T06:44:54.493Z,64
2018-07-21T06:45:56.486Z,64
2018-07-21T06:46:58.776Z,65
2018-07-21T06:48:00.778Z,66
2018-07-21T06:49:02.785Z,67
2018-07-21T06:50:05.217Z,67
2018-07-21T06:51:07.209Z,68
2018-07-21T06:52:09.602Z,69
2018-07-21T06:53:11.601Z,70
2018-07-21T06:54:13.636Z,71
2018-07-21T06:55:15.600Z,70
2018-07-21T06:56:17.606Z,70
2018-07-21T06:57:19.607Z,70
2018-07-21T06:58:21.610Z,72
2018-07-21T06:59:23.624Z,73
2018-07-21T07:00:25.625Z,72
2018-07-21T07:01:27.634Z,73
2018-07-21T07:02:29.643Z,74
2018-07-21T07:03:31.649Z,74
2018-07-21T07:04:33.718Z,75
2018-07-21T07:05:35.659Z,75
2018-07-21T07:06:37.669Z,75
2018-07-21T07:07:39.671Z,74
2018-07-21T07:08:41.673Z,76
2018-07-21T07:09:43.677Z,78
2018-07-21T07:10:45.683Z,78
2018-07-21T07:11:47.956Z,78
2018-07-21T07:12:49.967Z,78
2018-07-21T07:13:52.254Z,76
2018-07-21T07:14:54.256Z,74
2018-07-21T07:15:56.272Z,75
2018-07-21T07:16:58.274Z,78
2018-07-21T07:18:00.278Z,80
2018-07-21T07:19:02.288Z,81
2018-07-21T07:20:04.295Z,81
2018-07-21T07:21:06.293Z,81
2018-07-21T07:22:08.298Z,82
2018-07-21T07:23:10.305Z,81
2018-07-21T07:24:12.581Z,81
2018-07-21T07:25:14.593Z,80
2018-07-21T07:26:16.882Z,81
2018-07-21T07:27:18.892Z,81
2018-07-21T07:28:20.876Z,81
2018-07-21T07:29:22.891Z,81
2018-07-21T07:30:25.172Z,80
2018-07-21T07:31:27.176Z,80
2018-07-21T07:32:29.189Z,80
2018-07-21T07:33:31.544Z,81
2018-07-21T07:34:33.551Z,84
2018-07-21T07:35:35.560Z,84
2018-07-21T07:36:37.565Z,86
2018-07-21T07:37:39.567Z,88
2018-07-21T07:38:41.568Z,89
2018-07-21T07:39:43.570Z,90
2018-07-21T07:40:45.573Z,88
2018-07-21T07:41:47.583Z,83
2018-07-21T07:42:49.590Z,78
2018-07-21T07:43:51.979Z,74
2018-07-21T07:44:53.973Z,73
2018-07-21T07:45:56.262Z,71
2018-07-21T07:46:58.269Z,70
2018-07-21T07:48:00.267Z,71
2018-07-21T07:49:02.851Z,74
2018-07-21T07:50:05.149Z,80
2018-07-21T07:51:07.154Z,86
2018-07-21T07:52:09.536Z,86
2018-07-21T07:53:11.552Z,89
2018-07-21T07:54:13.552Z,90
2018-07-21T07:55:15.557Z,89
2018-07-21T07:56:17.573Z,87
2018-07-21T07:57:19.851Z,86
2018-07-21T07:58:22.246Z,88
2018-07-21T07:59:24.253Z,91
2018-07-21T08:00:26.303Z,92
2018-07-21T08:01:28.259Z,90
2018-07-21T08:02:30.834Z,92
2018-07-21T08:03:33.223Z,95
2018-07-21T08:04:35.230Z,95
2018-07-21T08:05:37.247Z,93
2018-07-21T08:06:39.246Z,94
2018-07-21T08:07:41.252Z,95
2018-07-21T08:08:43.267Z,98
2018-07-21T08:09:45.274Z,103
2018-07-21T08:10:47.277Z,107
2018-07-21T08:11:49.728Z,110
2018-07-21T08:12:51.721Z,114
2018-07-21T08:13:53.730Z,119
2018-07-21T08:14:55.743Z,123
2018-07-21T08:15:57.745Z,124
2018-07-21T08:16:59.745Z,127
2018-07-21T08:18:01.763Z,130
2018-07-21T08:19:03.769Z,130
2018-07-21T08:20:06.064Z,128
2018-07-21T08:21:08.071Z,126
2018-07-21T08:22:10.374Z,121
2018-07-21T08:23:12.380Z,119
2018-07-21T08:24:14.390Z,117
2018-07-21T08:25:16.778Z,116
2018-07-21T08:26:18.794Z,114
2018-07-21T08:27:20.793Z,112
2018-07-21T08:28:22.800Z,109
2018-07-21T08:29:25.195Z,103
2018-07-21T08:30:27.192Z,95
2018-07-21T08:31:29.204Z,83
2018-07-21T08:32:31.211Z,78
2018-07-21T08:33:33.219Z,78
2018-07-21T08:34:35.259Z,82
2018-07-21T08:35:37.229Z,86
2018-07-21T08:36:39.532Z,99
2018-07-21T08:37:41.538Z,112
2018-07-21T08:38:43.555Z,123
2018-07-21T08:39:45.558Z,126
2018-07-21T08:40:47.563Z,162
2018-07-21T08:41:49.576Z,215
2018-07-21T08:42:51.579Z,223
2018-07-21T08:43:53.968Z,208
2018-07-21T08:44:55.978Z,218
2018-07-21T08:45:57.977Z,192
2018-07-21T08:46:59.981Z,185
2018-07-21T08:48:02.380Z,225
2018-07-21T08:49:04.395Z,232
2018-07-21T08:50:06.406Z,222
2018-07-21T08:51:08.420Z,236
2018-07-21T08:52:10.435Z,241
2018-07-21T08:53:12.441Z,243
2018-07-21T08:54:14.837Z,255
2018-07-21T08:55:17.116Z,269
2018-07-21T08:56:19.119Z,268
2018-07-21T08:57:21.128Z,283
2018-07-21T08:58:23.144Z,309
2018-07-21T08:59:25.524Z,311
2018-07-21T09:00:27.537Z,300
2018-07-21T09:01:29.546Z,315
2018-07-21T09:02:31.549Z,321
2018-07-21T09:03:34.004Z,333
2018-07-21T09:04:36.462Z,356
2018-07-21T09:05:39.262Z,358
2018-07-21T09:06:41.674Z,356
2018-07-21T09:07:44.072Z,367
2018-07-21T09:08:46.553Z,381
2018-07-21T09:09:48.933Z,390
2018-07-21T09:10:51.373Z,389
2018-07-21T09:11:53.778Z,404
2018-07-21T09:12:56.387Z,398
2018-07-21T09:13:58.403Z,406
2018-07-21T09:15:01.045Z,436
2018-07-21T09:16:03.056Z,427
2018-07-21T09:17:05.457Z,395
2018-07-21T09:18:07.468Z,351
2018-07-21T09:19:09.480Z,322
2018-07-21T09:20:11.483Z,328
2018-07-21T09:21:13.489Z,248
2018-07-21T09:22:15.498Z,263
2018-07-21T09:23:17.511Z,282
2018-07-21T09:24:19.512Z,256
2018-07-21T09:25:21.518Z,247
2018-07-21T09:26:23.525Z,175
2018-07-21T09:27:25.531Z,131
2018-07-21T09:28:27.551Z,123
2018-07-21T09:29:29.571Z,133
2018-07-21T09:30:31.565Z,174
2018-07-21T09:31:33.631Z,211
2018-07-21T09:32:35.652Z,224
2018-07-21T09:33:37.656Z,264
2018-07-21T09:34:39.665Z,281
2018-07-21T09:35:41.681Z,322
2018-07-21T09:36:43.690Z,319
2018-07-21T09:37:45.698Z,345
2018-07-21T09:38:47.710Z,336
2018-07-21T09:39:49.720Z,321
2018-07-21T09:40:51.740Z,317
2018-07-21T09:41:53.749Z,314
2018-07-21T09:42:55.764Z,318
2018-07-21T09:43:57.781Z,343
2018-07-21T09:45:00.077Z,375
2018-07-21T09:46:02.095Z,389
2018-07-21T09:47:04.106Z,385
2018-07-21T09:48:06.392Z,367
2018-07-21T09:49:08.766Z,362
2018-07-21T09:50:11.022Z,379
2018-07-21T09:51:13.313Z,403
2018-07-21T09:52:15.338Z,414
2018-07-21T09:53:17.732Z,402
2018-07-21T09:54:19.740Z,406
2018-07-21T09:55:21.755Z,391
2018-07-21T09:56:23.777Z,384
2018-07-21T09:57:25.779Z,366
2018-07-21T09:58:27.789Z,358
2018-07-21T09:59:29.804Z,367
2018-07-21T10:00:31.821Z,387
2018-07-21T10:01:33.861Z,413
2018-07-21T10:02:35.864Z,388
2018-07-21T10:03:37.878Z,402
2018-07-21T10:04:39.892Z,404
2018-07-21T10:05:41.919Z,399
2018-07-21T10:06:43.932Z,377
2018-07-21T10:07:45.948Z,386
2018-07-21T10:08:47.972Z,375
2018-07-21T10:09:50.363Z,379
2018-07-21T10:10:52.385Z,397
2018-07-21T10:11:54.683Z,412
2018-07-21T10:12:56.702Z,447
2018-07-21T10:13:58.703Z,430
2018-07-21T10:15:01.007Z,418
2018-07-21T10:16:03.021Z,424
2018-07-21T10:17:05.037Z,446
2018-07-21T10:18:07.323Z,457
2018-07-21T10:19:09.348Z,415
2018-07-21T10:20:11.369Z,442
2018-07-21T10:21:13.388Z,417
2018-07-21T10:22:15.811Z,428
2018-07-21T10:23:17.780Z,420
2018-07-21T10:24:20.089Z,397
2018-07-21T10:25:22.397Z,388
2018-07-21T10:26:24.516Z,398
2018-07-21T10:27:26.532Z,391
2018-07-21T10:28:28.616Z,384
2018-07-21T10:29:30.583Z,339
2018-07-21T10:30:32.593Z,314
2018-07-21T10:31:34.613Z,331
2018-07-21T10:32:37.016Z,388
2018-07-21T10:33:39.048Z,393
2018-07-21T10:34:41.066Z,397
2018-07-21T10:35:43.085Z,408
2018-07-21T10:36:45.112Z,403
2018-07-21T10:37:47.127Z,413
2018-07-21T10:38:49.155Z,422
2018-07-21T10:39:51.170Z,415
2018-07-21T10:40:53.191Z,427
2018-07-21T10:41:55.215Z,403
2018-07-21T10:42:57.833Z,404
2018-07-21T10:43:59.858Z,423
2018-07-21T10:45:01.880Z,445
2018-07-21T10:46:04.186Z,435
2018-07-21T10:47:06.195Z,419
2018-07-21T10:48:08.224Z,435
2018-07-21T10:49:10.541Z,405
2018-07-21T10:50:12.555Z,413
2018-07-21T10:51:14.588Z,423
2018-07-21T10:52:16.612Z,402
2018-07-21T10:53:18.941Z,393
2018-07-21T10:54:21.249Z,424
2018-07-21T10:55:23.269Z,457
2018-07-21T10:56:25.293Z,429
2018-07-21T10:57:27.316Z,461
2018-07-21T10:58:29.354Z,445
2018-07-21T10:59:31.377Z,427
2018-07-21T11:00:33.396Z,460
2018-07-21T11:01:35.426Z,434
2018-07-21T11:02:37.447Z,425
2018-07-21T11:03:39.459Z,404
2018-07-21T11:04:41.850Z,397
2018-07-21T11:05:43.918Z,395
2018-07-21T11:06:45.937Z,417
2018-07-21T11:07:47.972Z,429
2018-07-21T11:08:50.036Z,430
2018-07-21T11:09:52.316Z,439
2018-07-21T11:10:54.329Z,437
2018-07-21T11:11:56.361Z,427
2018-07-21T11:12:58.374Z,457
2018-07-21T11:14:00.397Z,445
2018-07-21T11:15:02.717Z,411
2018-07-21T11:16:04.712Z,440
2018-07-21T11:17:07.123Z,467
2018-07-21T11:18:09.145Z,435
2018-07-21T11:19:11.169Z,443
2018-07-21T11:20:13.178Z,475
2018-07-21T11:21:15.201Z,461
2018-07-21T11:22:17.226Z,431
2018-07-21T11:23:19.630Z,432
2018-07-21T11:24:21.655Z,459
2018-07-21T11:25:23.670Z,470
2018-07-21T11:26:25.693Z,455
2018-07-21T11:27:28.107Z,454
2018-07-21T11:28:30.138Z,455
2018-07-21T11:29:32.153Z,456
2018-07-21T11:30:34.557Z,472
2018-07-21T11:31:36.575Z,463
2018-07-21T11:32:38.874Z,450
2018-07-21T11:33:40.906Z,449
2018-07-21T11:34:42.924Z,466
2018-07-21T11:35:45.011Z,427
2018-07-21T11:36:47.463Z,362
2018-07-21T11:37:49.486Z,411
2018-07-21T11:38:51.789Z,316
2018-07-21T11:39:53.814Z,323
2018-07-21T11:40:56.102Z,322
2018-07-21T11:41:58.122Z,377
2018-07-21T11:43:00.143Z,367
2018-07-21T11:44:02.172Z,422
2018-07-21T11:45:04.182Z,370
2018-07-21T11:46:06.491Z,348
2018-07-21T11:47:08.513Z,351
2018-07-21T11:48:10.528Z,332
2018-07-21T11:49:12.563Z,392
2018-07-21T11:50:14.581Z,339
2018-07-21T11:51:16.902Z,332
2018-07-21T11:52:19.223Z,387
2018-07-21T11:53:21.255Z,389
2018-07-21T11:54:23.653Z,418
2018-07-21T11:55:25.677Z,377
2018-07-21T11:56:28.082Z,404
2018-07-21T11:57:30.094Z,470
2018-07-21T11:58:32.120Z,481
2018-07-21T11:59:34.140Z,455
2018-07-21T12:00:36.449Z,436
2018-07-21T12:01:38.466Z,436
2018-07-21T12:02:40.494Z,433
2018-07-21T12:03:42.517Z,457
2018-07-21T12:04:44.552Z,429
2018-07-21T12:05:46.619Z,474
2018-07-21T12:06:48.592Z,459
2018-07-21T12:07:50.997Z,423
2018-07-21T12:08:53.021Z,414
2018-07-21T12:09:55.050Z,408
2018-07-21T12:10:57.073Z,405
2018-07-21T12:11:59.094Z,429
2018-07-21T12:13:01.181Z,425
2018-07-21T12:14:03.290Z,439
2018-07-21T12:15:07.294Z,443
2018-07-21T12:16:11.035Z,476
2018-07-21T12:17:13.063Z,457
2018-07-21T12:18:15.076Z,452
2018-07-21T12:19:17.104Z,432
2018-07-21T12:20:19.201Z,425
2018-07-21T12:21:21.534Z,425
2018-07-21T12:22:23.948Z,409
2018-07-21T12:23:25.966Z,386
2018-07-21T12:24:27.986Z,386
2018-07-21T12:25:30.007Z,406
2018-07-21T12:26:32.391Z,412
2018-07-21T12:27:34.719Z,425
2018-07-21T12:28:36.675Z,413
2018-07-21T12:29:38.698Z,416
2018-07-21T12:30:40.710Z,404
2018-07-21T12:31:43.019Z,418
2018-07-21T12:32:45.037Z,413
2018-07-21T12:33:47.528Z,401
2018-07-21T12:34:49.467Z,403
2018-07-21T12:35:51.494Z,399
2018-07-21T12:36:53.516Z,396
2018-07-21T12:37:55.541Z,383
2018-07-21T12:38:57.562Z,366
2018-07-21T12:39:59.629Z,386
2018-07-21T12:41:01.885Z,384
2018-07-21T12:42:03.917Z,369
2018-07-21T12:43:05.932Z,379
2018-07-21T12:44:08.248Z,396
2018-07-21T12:45:10.269Z,391
2018-07-21T12:46:12.564Z,389
2018-07-21T12:47:15.098Z,397
2018-07-21T12:48:17.064Z,401
2018-07-21T12:49:19.085Z,412
2018-07-21T12:50:21.102Z,404
2018-07-21T12:51:23.517Z,414
2018-07-21T12:52:25.533Z,425
2018-07-21T12:53:27.555Z,425
2018-07-21T12:54:29.580Z,422
2018-07-21T12:55:31.592Z,415
2018-07-21T12:56:33.674Z,397
2018-07-21T12:57:36.204Z,369
2018-07-21T12:58:38.883Z,370
2018-07-21T12:59:41.210Z,397
2018-07-21T13:00:43.234Z,397
2018-07-21T13:01:45.545Z,373
2018-07-21T13:02:47.565Z,378
2018-07-21T13:03:49.617Z,370
2018-07-21T13:04:51.634Z,375
2018-07-21T13:05:53.954Z,380
2018-07-21T13:06:55.980Z,382
2018-07-21T13:07:58.004Z,379
2018-07-21T13:09:00.306Z,356
2018-07-21T13:10:02.333Z,353
2018-07-21T13:11:04.354Z,355
2018-07-21T13:12:06.677Z,343
2018-07-21T13:13:08.705Z,345
2018-07-21T13:14:10.730Z,365
2018-07-21T13:15:13.134Z,382
2018-07-21T13:16:15.552Z,364
2018-07-21T13:17:17.574Z,387
2018-07-21T13:18:19.883Z,411
2018-07-21T13:19:21.905Z,409
2018-07-21T13:20:23.915Z,412
2018-07-21T13:21:25.935Z,380
2018-07-21T13:22:28.241Z,379
2018-07-21T13:23:30.267Z,397
2018-07-21T13:24:32.292Z,380
2018-07-21T13:25:34.311Z,372
2018-07-21T13:26:36.333Z,372
2018-07-21T13:27:38.361Z,387
2018-07-21T13:28:40.372Z,375
2018-07-21T13:29:42.399Z,354
2018-07-21T13:30:44.439Z,354
2018-07-21T13:31:46.531Z,323
2018-07-21T13:32:48.477Z,353
2018-07-21T13:33:50.511Z,354
2018-07-21T13:34:52.535Z,347
2018-07-21T13:35:54.557Z,318
2018-07-21T13:36:57.075Z,278
2018-07-21T13:37:59.019Z,329
2018-07-21T13:39:01.044Z,335
2018-07-21T13:40:03.759Z,332
2018-07-21T13:41:05.783Z,329
2018-07-21T13:42:07.803Z,352
2018-07-21T13:43:11.773Z,350
2018-07-21T13:44:14.139Z,330
2018-07-21T13:45:16.112Z,332
2018-07-21T13:46:18.427Z,341
2018-07-21T13:47:20.451Z,253
2018-07-21T13:48:22.474Z,290
2018-07-21T13:49:24.513Z,285
2018-07-21T13:50:26.537Z,261
2018-07-21T13:51:28.567Z,230
2018-07-21T13:52:30.595Z,194
2018-07-21T13:53:32.613Z,206
2018-07-21T13:54:34.640Z,206
2018-07-21T13:55:36.681Z,255
2018-07-21T13:56:38.999Z,200
2018-07-21T13:57:41.013Z,221
2018-07-21T13:58:43.435Z,260
2018-07-21T13:59:45.455Z,329
2018-07-21T14:00:47.474Z,276
2018-07-21T14:01:49.506Z,320
2018-07-21T14:02:51.825Z,273
2018-07-21T14:03:53.856Z,225
2018-07-21T14:04:55.882Z,243
2018-07-21T14:05:57.912Z,285
2018-07-21T14:06:59.931Z,315
2018-07-21T14:08:01.955Z,316
2018-07-21T14:09:03.982Z,315
2018-07-21T14:10:06.014Z,314
2018-07-21T14:11:08.426Z,316
2018-07-21T14:12:10.749Z,310
2018-07-21T14:13:12.772Z,315
2018-07-21T14:14:15.181Z,318
2018-07-21T14:15:17.205Z,297
2018-07-21T14:16:19.233Z,302
2018-07-21T14:17:21.265Z,289
2018-07-21T14:18:23.290Z,267
2018-07-21T14:19:25.313Z,250
2018-07-21T14:20:27.335Z,242
2018-07-21T14:21:29.368Z,259
2018-07-21T14:22:31.386Z,251
2018-07-21T14:23:33.411Z,248
2018-07-21T14:24:35.436Z,272
2018-07-21T14:25:37.460Z,244
2018-07-21T14:26:39.498Z,261
2018-07-21T14:27:41.523Z,190
2018-07-21T14:28:43.552Z,211
2018-07-21T14:29:46.168Z,178
2018-07-21T14:30:48.079Z,179
2018-07-21T14:31:50.101Z,206
2018-07-21T14:32:52.130Z,246
2018-07-21T14:33:54.159Z,216
2018-07-21T14:34:56.557Z,158
2018-07-21T14:35:59.602Z,147
2018-07-21T14:37:01.536Z,146
2018-07-21T14:38:03.842Z,140
2018-07-21T14:39:05.859Z,143
2018-07-21T14:40:07.886Z,136